sensor_id;sensor_type;location;lat;lon;timestamp;temperature;humidity
78297;DHT22;67555;47.660;19.622;2023-12-14T00:01:15;5.40;85.40
78297;DHT22;67555;47.660;19.622;2023-12-14T00:03:41;5.30;85.70
78297;DHT22;67555;47.660;19.622;2023-12-14T00:06:10;5.30;85.90
78297;DHT22;67555;47.660;19.622;2023-12-14T00:08:36;5.30;86.10
78297;DHT22;67555;47.660;19.622;2023-12-14T00:11:06;5.30;86.20
78297;DHT22;67555;47.660;19.622;2023-12-14T00:13:32;5.40;86.00
78297;DHT22;67555;47.660;19.622;2023-12-14T00:15:59;5.50;85.80
78297;DHT22;67555;47.660;19.622;2023-12-14T00:18:25;5.50;85.70
78297;DHT22;67555;47.660;19.622;2023-12-14T00:20:51;5.50;85.60
78297;DHT22;67555;47.660;19.622;2023-12-14T00:23:18;5.50;85.50
78297;DHT22;67555;47.660;19.622;2023-12-14T00:25:44;5.60;85.40
78297;DHT22;67555;47.660;19.622;2023-12-14T00:28:10;5.70;85.30
78297;DHT22;67555;47.660;19.622;2023-12-14T00:30:35;5.70;85.00
78297;DHT22;67555;47.660;19.622;2023-12-14T00:33:01;5.70;84.90
78297;DHT22;67555;47.660;19.622;2023-12-14T00:35:27;5.60;85.00
78297;DHT22;67555;47.660;19.622;2023-12-14T00:37:53;5.50;85.20
78297;DHT22;67555;47.660;19.622;2023-12-14T00:40:19;5.30;85.50
78297;DHT22;67555;47.660;19.622;2023-12-14T00:42:44;5.30;85.90
78297;DHT22;67555;47.660;19.622;2023-12-14T00:45:10;5.20;86.00
78297;DHT22;67555;47.660;19.622;2023-12-14T00:47:36;5.20;86.10
78297;DHT22;67555;47.660;19.622;2023-12-14T00:50:02;5.20;86.10
78297;DHT22;67555;47.660;19.622;2023-12-14T00:52:27;5.20;86.10
78297;DHT22;67555;47.660;19.622;2023-12-14T00:54:54;5.20;86.20
78297;DHT22;67555;47.660;19.622;2023-12-14T00:57:20;5.30;86.20
78297;DHT22;67555;47.660;19.622;2023-12-14T00:59:46;5.30;86.10
78297;DHT22;67555;47.660;19.622;2023-12-14T01:02:12;5.40;85.90
78297;DHT22;67555;47.660;19.622;2023-12-14T01:04:38;5.40;85.70
78297;DHT22;67555;47.660;19.622;2023-12-14T01:07:04;5.50;85.60
78297;DHT22;67555;47.660;19.622;2023-12-14T01:09:30;5.50;85.60
78297;DHT22;67555;47.660;19.622;2023-12-14T01:11:55;5.50;85.50
78297;DHT22;67555;47.660;19.622;2023-12-14T01:14:22;5.70;85.20
78297;DHT22;67555;47.660;19.622;2023-12-14T01:16:47;5.90;84.80
78297;DHT22;67555;47.660;19.622;2023-12-14T01:19:13;6.00;84.20
78297;DHT22;67555;47.660;19.622;2023-12-14T01:21:39;6.20;83.70
78297;DHT22;67555;47.660;19.622;2023-12-14T01:24:05;6.20;83.30
78297;DHT22;67555;47.660;19.622;2023-12-14T01:26:31;6.00;83.00
78297;DHT22;67555;47.660;19.622;2023-12-14T01:28:56;5.80;83.60
78297;DHT22;67555;47.660;19.622;2023-12-14T01:31:24;5.60;84.30
78297;DHT22;67555;47.660;19.622;2023-12-14T01:33:50;5.60;84.70
78297;DHT22;67555;47.660;19.622;2023-12-14T01:36:24;5.50;85.00
78297;DHT22;67555;47.660;19.622;2023-12-14T01:38:50;5.40;85.20
78297;DHT22;67555;47.660;19.622;2023-12-14T01:41:16;5.30;85.60
78297;DHT22;67555;47.660;19.622;2023-12-14T01:43:42;5.30;85.80
78297;DHT22;67555;47.660;19.622;2023-12-14T01:46:07;5.10;86.10
78297;DHT22;67555;47.660;19.622;2023-12-14T01:48:33;5.00;86.40
78297;DHT22;67555;47.660;19.622;2023-12-14T01:50:59;5.00;86.80
78297;DHT22;67555;47.660;19.622;2023-12-14T01:53:27;4.90;87.10
78297;DHT22;67555;47.660;19.622;2023-12-14T01:55:53;4.90;87.20
78297;DHT22;67555;47.660;19.622;2023-12-14T01:58:19;4.90;87.30
78297;DHT22;67555;47.660;19.622;2023-12-14T02:03:14;4.80;87.70
78297;DHT22;67555;47.660;19.622;2023-12-14T02:05:40;4.80;87.90
78297;DHT22;67555;47.660;19.622;2023-12-14T02:08:06;4.90;87.90
78297;DHT22;67555;47.660;19.622;2023-12-14T02:10:31;4.90;87.90
78297;DHT22;67555;47.660;19.622;2023-12-14T02:12:57;4.90;87.90
78297;DHT22;67555;47.660;19.622;2023-12-14T02:15:23;4.90;87.80
78297;DHT22;67555;47.660;19.622;2023-12-14T02:17:49;4.90;87.80
78297;DHT22;67555;47.660;19.622;2023-12-14T02:20:16;4.90;87.80
78297;DHT22;67555;47.660;19.622;2023-12-14T02:22:53;5.00;87.80
78297;DHT22;67555;47.660;19.622;2023-12-14T02:25:20;5.00;87.70
78297;DHT22;67555;47.660;19.622;2023-12-14T02:27:46;4.90;87.70
78297;DHT22;67555;47.660;19.622;2023-12-14T02:30:13;4.90;87.80
78297;DHT22;67555;47.660;19.622;2023-12-14T02:32:40;4.90;87.80
78297;DHT22;67555;47.660;19.622;2023-12-14T02:35:06;4.90;87.90
78297;DHT22;67555;47.660;19.622;2023-12-14T02:37:33;4.90;87.90
78297;DHT22;67555;47.660;19.622;2023-12-14T02:40:00;4.90;87.90
78297;DHT22;67555;47.660;19.622;2023-12-14T02:42:26;4.90;87.90
78297;DHT22;67555;47.660;19.622;2023-12-14T02:44:53;5.00;88.00
78297;DHT22;67555;47.660;19.622;2023-12-14T02:47:19;5.00;87.90
78297;DHT22;67555;47.660;19.622;2023-12-14T02:49:44;5.00;87.80
78297;DHT22;67555;47.660;19.622;2023-12-14T02:52:10;5.00;87.80
78297;DHT22;67555;47.660;19.622;2023-12-14T02:54:39;5.00;87.70
78297;DHT22;67555;47.660;19.622;2023-12-14T02:57:05;5.00;87.70
78297;DHT22;67555;47.660;19.622;2023-12-14T02:59:31;5.00;87.60
78297;DHT22;67555;47.660;19.622;2023-12-14T03:01:57;5.10;87.40
78297;DHT22;67555;47.660;19.622;2023-12-14T03:04:22;5.00;87.30
78297;DHT22;67555;47.660;19.622;2023-12-14T03:06:48;5.00;87.40
78297;DHT22;67555;47.660;19.622;2023-12-14T03:09:14;5.00;87.50
78297;DHT22;67555;47.660;19.622;2023-12-14T03:11:40;5.00;87.50
78297;DHT22;67555;47.660;19.622;2023-12-14T03:14:07;4.80;87.60
78297;DHT22;67555;47.660;19.622;2023-12-14T03:16:32;4.70;87.70
78297;DHT22;67555;47.660;19.622;2023-12-14T03:19:01;4.70;88.10
78297;DHT22;67555;47.660;19.622;2023-12-14T03:21:26;4.70;88.20
78297;DHT22;67555;47.660;19.622;2023-12-14T03:23:52;4.70;88.30
78297;DHT22;67555;47.660;19.622;2023-12-14T03:26:18;4.70;88.20
78297;DHT22;67555;47.660;19.622;2023-12-14T03:28:45;4.70;88.20
78297;DHT22;67555;47.660;19.622;2023-12-14T03:31:12;4.70;88.20
78297;DHT22;67555;47.660;19.622;2023-12-14T03:33:38;4.70;88.30
78297;DHT22;67555;47.660;19.622;2023-12-14T03:36:04;4.70;88.40
78297;DHT22;67555;47.660;19.622;2023-12-14T03:38:31;4.70;88.40
78297;DHT22;67555;47.660;19.622;2023-12-14T03:40:57;4.60;88.60
78297;DHT22;67555;47.660;19.622;2023-12-14T03:43:23;4.60;88.80
78297;DHT22;67555;47.660;19.622;2023-12-14T03:45:49;4.70;88.70
78297;DHT22;67555;47.660;19.622;2023-12-14T03:48:15;4.70;88.70
78297;DHT22;67555;47.660;19.622;2023-12-14T03:50:41;4.80;88.60
78297;DHT22;67555;47.660;19.622;2023-12-14T03:53:07;4.90;88.50
78297;DHT22;67555;47.660;19.622;2023-12-14T03:55:33;4.90;88.40
78297;DHT22;67555;47.660;19.622;2023-12-14T03:57:59;5.00;88.30
78297;DHT22;67555;47.660;19.622;2023-12-14T04:00:25;5.00;88.20
78297;DHT22;67555;47.660;19.622;2023-12-14T04:02:51;5.10;87.90
78297;DHT22;67555;47.660;19.622;2023-12-14T04:05:17;5.30;87.50
78297;DHT22;67555;47.660;19.622;2023-12-14T04:07:43;5.60;86.90
78297;DHT22;67555;47.660;19.622;2023-12-14T04:10:10;5.70;86.30
78297;DHT22;67555;47.660;19.622;2023-12-14T04:12:37;5.70;85.90
78297;DHT22;67555;47.660;19.622;2023-12-14T04:15:05;5.80;85.70
78297;DHT22;67555;47.660;19.622;2023-12-14T04:17:31;5.90;85.40
78297;DHT22;67555;47.660;19.622;2023-12-14T04:19:58;6.10;85.00
78297;DHT22;67555;47.660;19.622;2023-12-14T04:22:24;6.10;84.80
78297;DHT22;67555;47.660;19.622;2023-12-14T04:24:50;6.30;84.50
78297;DHT22;67555;47.660;19.622;2023-12-14T04:27:16;6.40;84.20
78297;DHT22;67555;47.660;19.622;2023-12-14T04:29:42;6.40;83.90
78297;DHT22;67555;47.660;19.622;2023-12-14T04:32:08;6.50;83.70
78297;DHT22;67555;47.660;19.622;2023-12-14T04:34:33;6.60;83.30
78297;DHT22;67555;47.660;19.622;2023-12-14T04:36:59;6.60;83.10
78297;DHT22;67555;47.660;19.622;2023-12-14T04:39:25;6.60;83.00
78297;DHT22;67555;47.660;19.622;2023-12-14T04:41:51;6.60;83.00
78297;DHT22;67555;47.660;19.622;2023-12-14T04:44:21;6.60;82.80
78297;DHT22;67555;47.660;19.622;2023-12-14T04:46:49;6.70;82.60
78297;DHT22;67555;47.660;19.622;2023-12-14T04:49:16;6.70;82.30
78297;DHT22;67555;47.660;19.622;2023-12-14T04:51:42;6.80;82.20
78297;DHT22;67555;47.660;19.622;2023-12-14T04:54:08;6.80;82.10
78297;DHT22;67555;47.660;19.622;2023-12-14T04:56:34;6.80;81.90
78297;DHT22;67555;47.660;19.622;2023-12-14T04:59:00;6.90;81.70
78297;DHT22;67555;47.660;19.622;2023-12-14T05:01:25;6.90;81.50
78297;DHT22;67555;47.660;19.622;2023-12-14T05:03:54;6.90;81.40
78297;DHT22;67555;47.660;19.622;2023-12-14T05:06:21;7.00;81.30
78297;DHT22;67555;47.660;19.622;2023-12-14T05:08:46;7.00;81.20
78297;DHT22;67555;47.660;19.622;2023-12-14T05:11:13;7.00;81.10
78297;DHT22;67555;47.660;19.622;2023-12-14T05:13:39;7.00;81.00
78297;DHT22;67555;47.660;19.622;2023-12-14T05:16:05;7.00;80.90
78297;DHT22;67555;47.660;19.622;2023-12-14T05:18:31;7.00;80.90
78297;DHT22;67555;47.660;19.622;2023-12-14T05:20:56;7.00;80.90
78297;DHT22;67555;47.660;19.622;2023-12-14T05:23:23;7.00;80.80
78297;DHT22;67555;47.660;19.622;2023-12-14T05:25:49;7.00;80.80
78297;DHT22;67555;47.660;19.622;2023-12-14T05:28:15;6.70;80.70
78297;DHT22;67555;47.660;19.622;2023-12-14T05:30:41;6.40;81.20
78297;DHT22;67555;47.660;19.622;2023-12-14T05:33:07;6.00;82.20
78297;DHT22;67555;47.660;19.622;2023-12-14T05:35:33;5.80;83.20
78297;DHT22;67555;47.660;19.622;2023-12-14T05:37:59;5.50;83.70
78297;DHT22;67555;47.660;19.622;2023-12-14T05:40:25;5.30;84.60
78297;DHT22;67555;47.660;19.622;2023-12-14T05:42:51;5.10;85.20
78297;DHT22;67555;47.660;19.622;2023-12-14T05:45:17;5.00;85.70
78297;DHT22;67555;47.660;19.622;2023-12-14T05:47:44;4.90;86.10
78297;DHT22;67555;47.660;19.622;2023-12-14T05:50:10;4.80;86.50
78297;DHT22;67555;47.660;19.622;2023-12-14T05:52:36;4.70;86.90
78297;DHT22;67555;47.660;19.622;2023-12-14T05:55:03;4.70;87.20
78297;DHT22;67555;47.660;19.622;2023-12-14T05:57:29;4.70;87.50
78297;DHT22;67555;47.660;19.622;2023-12-14T05:59:55;4.60;87.70
78297;DHT22;67555;47.660;19.622;2023-12-14T06:02:21;4.50;87.90
78297;DHT22;67555;47.660;19.622;2023-12-14T06:04:46;4.50;87.90
78297;DHT22;67555;47.660;19.622;2023-12-14T06:07:14;4.60;88.00
78297;DHT22;67555;47.660;19.622;2023-12-14T06:09:40;4.70;88.00
78297;DHT22;67555;47.660;19.622;2023-12-14T06:12:06;4.70;88.10
78297;DHT22;67555;47.660;19.622;2023-12-14T06:14:32;4.70;88.00
78297;DHT22;67555;47.660;19.622;2023-12-14T06:16:58;4.70;88.00
78297;DHT22;67555;47.660;19.622;2023-12-14T06:19:24;4.80;87.90
78297;DHT22;67555;47.660;19.622;2023-12-14T06:21:50;4.80;87.90
78297;DHT22;67555;47.660;19.622;2023-12-14T06:24:15;4.70;88.00
78297;DHT22;67555;47.660;19.622;2023-12-14T06:26:42;4.70;88.30
78297;DHT22;67555;47.660;19.622;2023-12-14T06:29:11;4.70;88.50
78297;DHT22;67555;47.660;19.622;2023-12-14T06:31:37;4.70;88.70
78297;DHT22;67555;47.660;19.622;2023-12-14T06:34:03;4.60;88.90
78297;DHT22;67555;47.660;19.622;2023-12-14T06:36:33;4.50;89.10
78297;DHT22;67555;47.660;19.622;2023-12-14T06:39:00;4.50;89.20
78297;DHT22;67555;47.660;19.622;2023-12-14T06:41:27;4.50;89.40
78297;DHT22;67555;47.660;19.622;2023-12-14T06:43:54;4.50;89.50
78297;DHT22;67555;47.660;19.622;2023-12-14T06:46:20;4.60;89.60
78297;DHT22;67555;47.660;19.622;2023-12-14T06:48:47;4.70;89.50
78297;DHT22;67555;47.660;19.622;2023-12-14T06:51:13;4.70;89.30
78297;DHT22;67555;47.660;19.622;2023-12-14T06:53:43;4.80;89.10
78297;DHT22;67555;47.660;19.622;2023-12-14T06:56:09;4.90;89.00
78297;DHT22;67555;47.660;19.622;2023-12-14T06:58:41;4.90;89.00
78297;DHT22;67555;47.660;19.622;2023-12-14T07:01:10;4.90;89.10
78297;DHT22;67555;47.660;19.622;2023-12-14T07:03:40;4.90;89.00
78297;DHT22;67555;47.660;19.622;2023-12-14T07:06:07;4.90;89.00
78297;DHT22;67555;47.660;19.622;2023-12-14T07:08:33;4.90;89.10
78297;DHT22;67555;47.660;19.622;2023-12-14T07:10:59;4.90;89.10
78297;DHT22;67555;47.660;19.622;2023-12-14T07:13:26;5.00;89.10
78297;DHT22;67555;47.660;19.622;2023-12-14T07:15:51;5.00;89.00
78297;DHT22;67555;47.660;19.622;2023-12-14T07:18:17;5.00;88.90
78297;DHT22;67555;47.660;19.622;2023-12-14T07:20:43;5.00;88.80
78297;DHT22;67555;47.660;19.622;2023-12-14T07:23:08;5.00;88.70
78297;DHT22;67555;47.660;19.622;2023-12-14T07:25:34;5.00;88.50
78297;DHT22;67555;47.660;19.622;2023-12-14T07:28:00;5.10;88.40
78297;DHT22;67555;47.660;19.622;2023-12-14T07:30:25;5.30;88.20
78297;DHT22;67555;47.660;19.622;2023-12-14T07:32:51;5.30;87.90
78297;DHT22;67555;47.660;19.622;2023-12-14T07:35:17;5.30;87.60
78297;DHT22;67555;47.660;19.622;2023-12-14T07:37:43;5.30;87.70
78297;DHT22;67555;47.660;19.622;2023-12-14T07:40:09;5.30;87.50
78297;DHT22;67555;47.660;19.622;2023-12-14T07:42:35;5.30;87.70
78297;DHT22;67555;47.660;19.622;2023-12-14T07:45:01;5.30;87.50
78297;DHT22;67555;47.660;19.622;2023-12-14T07:47:27;5.30;87.50
78297;DHT22;67555;47.660;19.622;2023-12-14T07:49:52;5.30;87.50
78297;DHT22;67555;47.660;19.622;2023-12-14T07:52:18;5.30;87.50
78297;DHT22;67555;47.660;19.622;2023-12-14T07:54:44;5.30;87.40
78297;DHT22;67555;47.660;19.622;2023-12-14T07:57:10;5.30;87.30
78297;DHT22;67555;47.660;19.622;2023-12-14T07:59:35;5.20;87.40
78297;DHT22;67555;47.660;19.622;2023-12-14T08:02:01;5.10;87.50
78297;DHT22;67555;47.660;19.622;2023-12-14T08:04:28;5.00;87.90
78297;DHT22;67555;47.660;19.622;2023-12-14T08:06:54;5.00;88.10
78297;DHT22;67555;47.660;19.622;2023-12-14T08:09:21;5.00;88.30
78297;DHT22;67555;47.660;19.622;2023-12-14T08:11:47;5.00;88.30
78297;DHT22;67555;47.660;19.622;2023-12-14T08:14:13;5.00;88.50
78297;DHT22;67555;47.660;19.622;2023-12-14T08:16:38;5.00;88.60
78297;DHT22;67555;47.660;19.622;2023-12-14T08:19:04;5.10;88.40
78297;DHT22;67555;47.660;19.622;2023-12-14T08:21:30;5.20;88.30
78297;DHT22;67555;47.660;19.622;2023-12-14T08:23:56;5.30;88.20
78297;DHT22;67555;47.660;19.622;2023-12-14T08:26:22;5.40;88.00
78297;DHT22;67555;47.660;19.622;2023-12-14T08:28:48;5.50;87.80
78297;DHT22;67555;47.660;19.622;2023-12-14T08:31:13;5.50;87.60
78297;DHT22;67555;47.660;19.622;2023-12-14T08:33:41;5.60;87.50
78297;DHT22;67555;47.660;19.622;2023-12-14T08:36:08;5.60;87.30
78297;DHT22;67555;47.660;19.622;2023-12-14T08:38:34;5.80;87.10
78297;DHT22;67555;47.660;19.622;2023-12-14T08:40:59;5.80;87.00
78297;DHT22;67555;47.660;19.622;2023-12-14T08:43:26;5.80;87.00
78297;DHT22;67555;47.660;19.622;2023-12-14T08:45:53;5.80;86.90
78297;DHT22;67555;47.660;19.622;2023-12-14T08:48:19;5.90;86.80
78297;DHT22;67555;47.660;19.622;2023-12-14T08:50:45;5.90;86.70
78297;DHT22;67555;47.660;19.622;2023-12-14T08:53:11;5.90;86.70
78297;DHT22;67555;47.660;19.622;2023-12-14T08:55:37;5.80;86.60
78297;DHT22;67555;47.660;19.622;2023-12-14T08:58:02;5.80;86.70
78297;DHT22;67555;47.660;19.622;2023-12-14T09:00:28;5.80;86.70
78297;DHT22;67555;47.660;19.622;2023-12-14T09:02:54;5.80;86.60
78297;DHT22;67555;47.660;19.622;2023-12-14T09:05:21;5.90;86.60
78297;DHT22;67555;47.660;19.622;2023-12-14T09:07:47;5.90;86.40
78297;DHT22;67555;47.660;19.622;2023-12-14T09:10:13;6.00;86.30
78297;DHT22;67555;47.660;19.622;2023-12-14T09:12:38;6.00;85.80
78297;DHT22;67555;47.660;19.622;2023-12-14T09:15:05;5.90;85.70
78297;DHT22;67555;47.660;19.622;2023-12-14T09:17:31;5.80;85.60
78297;DHT22;67555;47.660;19.622;2023-12-14T09:20:00;5.80;85.70
78297;DHT22;67555;47.660;19.622;2023-12-14T09:22:26;5.70;85.70
78297;DHT22;67555;47.660;19.622;2023-12-14T09:24:51;5.60;85.80
78297;DHT22;67555;47.660;19.622;2023-12-14T09:27:19;5.60;85.90
78297;DHT22;67555;47.660;19.622;2023-12-14T09:29:44;5.60;86.00
78297;DHT22;67555;47.660;19.622;2023-12-14T09:32:10;5.50;86.10
78297;DHT22;67555;47.660;19.622;2023-12-14T09:34:36;5.60;86.10
78297;DHT22;67555;47.660;19.622;2023-12-14T09:37:01;5.50;86.00
78297;DHT22;67555;47.660;19.622;2023-12-14T09:39:27;5.50;86.10
78297;DHT22;67555;47.660;19.622;2023-12-14T09:42:04;5.50;86.10
78297;DHT22;67555;47.660;19.622;2023-12-14T09:44:31;5.50;86.10
78297;DHT22;67555;47.660;19.622;2023-12-14T09:47:01;5.60;86.10
78297;DHT22;67555;47.660;19.622;2023-12-14T09:49:29;5.60;86.10
78297;DHT22;67555;47.660;19.622;2023-12-14T09:51:58;5.60;86.20
78297;DHT22;67555;47.660;19.622;2023-12-14T09:54:26;5.70;86.10
78297;DHT22;67555;47.660;19.622;2023-12-14T09:56:52;5.70;86.10
78297;DHT22;67555;47.660;19.622;2023-12-14T09:59:21;5.80;85.90
78297;DHT22;67555;47.660;19.622;2023-12-14T10:01:47;5.90;86.00
78297;DHT22;67555;47.660;19.622;2023-12-14T10:04:18;5.90;85.90
78297;DHT22;67555;47.660;19.622;2023-12-14T10:06:45;6.00;85.70
78297;DHT22;67555;47.660;19.622;2023-12-14T10:09:13;6.00;85.60
78297;DHT22;67555;47.660;19.622;2023-12-14T10:11:41;6.00;85.50
78297;DHT22;67555;47.660;19.622;2023-12-14T10:14:25;6.00;85.40
78297;DHT22;67555;47.660;19.622;2023-12-14T10:16:52;6.10;85.50
78297;DHT22;67555;47.660;19.622;2023-12-14T10:19:19;6.20;85.30
78297;DHT22;67555;47.660;19.622;2023-12-14T10:21:50;6.10;85.10
78297;DHT22;67555;47.660;19.622;2023-12-14T10:24:17;6.20;85.20
78297;DHT22;67555;47.660;19.622;2023-12-14T10:26:46;6.30;85.00
78297;DHT22;67555;47.660;19.622;2023-12-14T10:29:11;6.30;84.90
78297;DHT22;67555;47.660;19.622;2023-12-14T10:31:37;6.40;84.80
78297;DHT22;67555;47.660;19.622;2023-12-14T10:34:06;6.40;84.60
78297;DHT22;67555;47.660;19.622;2023-12-14T10:36:33;6.50;84.60
78297;DHT22;67555;47.660;19.622;2023-12-14T10:39:01;6.60;84.30
78297;DHT22;67555;47.660;19.622;2023-12-14T10:41:27;6.70;84.10
78297;DHT22;67555;47.660;19.622;2023-12-14T10:43:56;6.70;83.90
78297;DHT22;67555;47.660;19.622;2023-12-14T10:46:23;6.80;83.90
78297;DHT22;67555;47.660;19.622;2023-12-14T10:48:50;6.90;83.70
78297;DHT22;67555;47.660;19.622;2023-12-14T10:51:19;7.00;83.40
78297;DHT22;67555;47.660;19.622;2023-12-14T10:53:46;7.00;83.00
78297;DHT22;67555;47.660;19.622;2023-12-14T10:56:14;7.00;82.90
78297;DHT22;67555;47.660;19.622;2023-12-14T10:58:57;7.00;83.00
78297;DHT22;67555;47.660;19.622;2023-12-14T11:01:24;7.00;82.90
78297;DHT22;67555;47.660;19.622;2023-12-14T11:03:55;7.00;82.80
78297;DHT22;67555;47.660;19.622;2023-12-14T11:08:53;7.10;82.80
78297;DHT22;67555;47.660;19.622;2023-12-14T11:11:20;7.20;82.80
78297;DHT22;67555;47.660;19.622;2023-12-14T11:13:52;7.20;82.70
78297;DHT22;67555;47.660;19.622;2023-12-14T11:16:20;7.20;82.60
78297;DHT22;67555;47.660;19.622;2023-12-14T11:18:47;7.30;82.40
78297;DHT22;67555;47.660;19.622;2023-12-14T11:21:18;7.40;82.30
78297;DHT22;67555;47.660;19.622;2023-12-14T11:23:45;7.40;82.00
78297;DHT22;67555;47.660;19.622;2023-12-14T11:26:11;7.30;82.10
78297;DHT22;67555;47.660;19.622;2023-12-14T11:28:45;7.30;82.00
78297;DHT22;67555;47.660;19.622;2023-12-14T11:31:12;7.30;82.30
78297;DHT22;67555;47.660;19.622;2023-12-14T11:33:38;7.40;82.20
78297;DHT22;67555;47.660;19.622;2023-12-14T11:36:04;7.50;82.00
78297;DHT22;67555;47.660;19.622;2023-12-14T11:38:30;7.50;81.70
78297;DHT22;67555;47.660;19.622;2023-12-14T11:40:58;7.50;81.80
78297;DHT22;67555;47.660;19.622;2023-12-14T11:43:24;7.50;81.70
78297;DHT22;67555;47.660;19.622;2023-12-14T11:45:52;7.60;81.80
78297;DHT22;67555;47.660;19.622;2023-12-14T11:48:18;7.60;81.40
78297;DHT22;67555;47.660;19.622;2023-12-14T11:50:46;7.60;81.40
78297;DHT22;67555;47.660;19.622;2023-12-14T11:53:13;7.80;81.20
78297;DHT22;67555;47.660;19.622;2023-12-14T11:55:41;7.80;81.20
78297;DHT22;67555;47.660;19.622;2023-12-14T11:58:07;7.80;81.20
78297;DHT22;67555;47.660;19.622;2023-12-14T12:00:34;8.00;81.10
78297;DHT22;67555;47.660;19.622;2023-12-14T12:05:36;8.20;80.60
78297;DHT22;67555;47.660;19.622;2023-12-14T12:08:02;8.30;80.30
78297;DHT22;67555;47.660;19.622;2023-12-14T12:10:29;8.40;80.00
78297;DHT22;67555;47.660;19.622;2023-12-14T12:13:06;8.40;79.90
78297;DHT22;67555;47.660;19.622;2023-12-14T12:15:33;8.40;79.80
78297;DHT22;67555;47.660;19.622;2023-12-14T12:18:09;8.50;79.90
78297;DHT22;67555;47.660;19.622;2023-12-14T12:20:35;8.50;79.80
78297;DHT22;67555;47.660;19.622;2023-12-14T12:23:01;8.60;79.60
78297;DHT22;67555;47.660;19.622;2023-12-14T12:25:28;8.60;79.60
78297;DHT22;67555;47.660;19.622;2023-12-14T12:27:54;8.60;79.40
78297;DHT22;67555;47.660;19.622;2023-12-14T12:30:23;8.60;79.20
78297;DHT22;67555;47.660;19.622;2023-12-14T12:32:49;8.60;79.40
78297;DHT22;67555;47.660;19.622;2023-12-14T12:35:20;8.60;79.50
78297;DHT22;67555;47.660;19.622;2023-12-14T12:37:47;8.60;79.60
78297;DHT22;67555;47.660;19.622;2023-12-14T12:40:22;8.60;79.50
78297;DHT22;67555;47.660;19.622;2023-12-14T12:42:48;8.70;79.50
78297;DHT22;67555;47.660;19.622;2023-12-14T12:45:15;8.80;79.20
78297;DHT22;67555;47.660;19.622;2023-12-14T12:47:43;8.80;79.00
78297;DHT22;67555;47.660;19.622;2023-12-14T12:50:09;8.80;78.90
78297;DHT22;67555;47.660;19.622;2023-12-14T12:52:35;8.80;78.90
78297;DHT22;67555;47.660;19.622;2023-12-14T12:55:02;8.80;79.00
78297;DHT22;67555;47.660;19.622;2023-12-14T12:57:29;8.70;78.70
78297;DHT22;67555;47.660;19.622;2023-12-14T12:59:55;8.60;79.00
78297;DHT22;67555;47.660;19.622;2023-12-14T13:02:27;8.60;79.00
78297;DHT22;67555;47.660;19.622;2023-12-14T13:04:53;8.50;79.30
78297;DHT22;67555;47.660;19.622;2023-12-14T13:07:19;8.40;79.30
78297;DHT22;67555;47.660;19.622;2023-12-14T13:09:44;8.40;79.50
78297;DHT22;67555;47.660;19.622;2023-12-14T13:12:10;8.40;79.60
78297;DHT22;67555;47.660;19.622;2023-12-14T13:14:36;8.40;79.70
78297;DHT22;67555;47.660;19.622;2023-12-14T13:17:02;8.40;79.70
78297;DHT22;67555;47.660;19.622;2023-12-14T13:19:28;8.50;79.60
78297;DHT22;67555;47.660;19.622;2023-12-14T13:21:54;8.40;79.50
78297;DHT22;67555;47.660;19.622;2023-12-14T13:24:23;8.40;79.60
78297;DHT22;67555;47.660;19.622;2023-12-14T13:26:49;8.40;79.50
78297;DHT22;67555;47.660;19.622;2023-12-14T13:29:15;8.40;79.60
78297;DHT22;67555;47.660;19.622;2023-12-14T13:31:40;8.40;79.50
78297;DHT22;67555;47.660;19.622;2023-12-14T13:34:06;8.40;79.40
78297;DHT22;67555;47.660;19.622;2023-12-14T13:36:32;8.50;79.20
78297;DHT22;67555;47.660;19.622;2023-12-14T13:38:57;8.60;79.30
78297;DHT22;67555;47.660;19.622;2023-12-14T13:41:23;8.60;79.00
78297;DHT22;67555;47.660;19.622;2023-12-14T13:43:49;8.60;78.90
78297;DHT22;67555;47.660;19.622;2023-12-14T13:46:17;8.60;78.90
78297;DHT22;67555;47.660;19.622;2023-12-14T13:48:43;8.60;78.80
78297;DHT22;67555;47.660;19.622;2023-12-14T13:51:10;8.60;78.80
78297;DHT22;67555;47.660;19.622;2023-12-14T13:53:35;8.60;78.80
78297;DHT22;67555;47.660;19.622;2023-12-14T13:56:01;8.60;78.90
78297;DHT22;67555;47.660;19.622;2023-12-14T13:58:27;8.50;79.00
78297;DHT22;67555;47.660;19.622;2023-12-14T14:00:54;8.50;79.00
78297;DHT22;67555;47.660;19.622;2023-12-14T14:03:19;8.50;79.10
78297;DHT22;67555;47.660;19.622;2023-12-14T14:05:45;8.50;79.10
78297;DHT22;67555;47.660;19.622;2023-12-14T14:08:11;8.60;79.00
78297;DHT22;67555;47.660;19.622;2023-12-14T14:10:36;8.70;78.80
78297;DHT22;67555;47.660;19.622;2023-12-14T14:13:04;8.80;78.40
78297;DHT22;67555;47.660;19.622;2023-12-14T14:15:29;8.80;78.30
78297;DHT22;67555;47.660;19.622;2023-12-14T14:17:55;8.80;78.30
78297;DHT22;67555;47.660;19.622;2023-12-14T14:20:21;8.80;78.10
78297;DHT22;67555;47.660;19.622;2023-12-14T14:22:47;8.80;78.00
78297;DHT22;67555;47.660;19.622;2023-12-14T14:25:13;8.80;78.10
78297;DHT22;67555;47.660;19.622;2023-12-14T14:27:39;8.80;78.20
78297;DHT22;67555;47.660;19.622;2023-12-14T14:30:06;8.80;78.00
78297;DHT22;67555;47.660;19.622;2023-12-14T14:32:32;8.60;78.00
78297;DHT22;67555;47.660;19.622;2023-12-14T14:35:00;8.50;78.20
78297;DHT22;67555;47.660;19.622;2023-12-14T14:37:26;8.40;78.40
78297;DHT22;67555;47.660;19.622;2023-12-14T14:39:52;8.30;78.50
78297;DHT22;67555;47.660;19.622;2023-12-14T14:42:18;8.20;78.80
78297;DHT22;67555;47.660;19.622;2023-12-14T14:44:44;8.10;79.20
78297;DHT22;67555;47.660;19.622;2023-12-14T14:47:09;8.00;79.50
78297;DHT22;67555;47.660;19.622;2023-12-14T14:49:35;8.00;79.60
78297;DHT22;67555;47.660;19.622;2023-12-14T14:52:01;8.00;79.70
78297;DHT22;67555;47.660;19.622;2023-12-14T14:54:27;8.00;79.90
78297;DHT22;67555;47.660;19.622;2023-12-14T14:56:52;8.00;80.00
78297;DHT22;67555;47.660;19.622;2023-12-14T14:59:18;8.00;80.00
78297;DHT22;67555;47.660;19.622;2023-12-14T15:01:44;7.90;80.20
78297;DHT22;67555;47.660;19.622;2023-12-14T15:04:11;7.80;80.30
78297;DHT22;67555;47.660;19.622;2023-12-14T15:06:37;7.80;80.40
78297;DHT22;67555;47.660;19.622;2023-12-14T15:09:05;7.80;80.50
78297;DHT22;67555;47.660;19.622;2023-12-14T15:11:30;7.90;80.40
78297;DHT22;67555;47.660;19.622;2023-12-14T15:13:56;8.00;80.20
78297;DHT22;67555;47.660;19.622;2023-12-14T15:16:22;8.00;80.00
78297;DHT22;67555;47.660;19.622;2023-12-14T15:18:52;7.80;80.20
78297;DHT22;67555;47.660;19.622;2023-12-14T15:21:18;7.80;80.40
78297;DHT22;67555;47.660;19.622;2023-12-14T15:23:43;7.80;80.20
78297;DHT22;67555;47.660;19.622;2023-12-14T15:26:12;7.80;80.10
78297;DHT22;67555;47.660;19.622;2023-12-14T15:28:38;7.70;80.40
78297;DHT22;67555;47.660;19.622;2023-12-14T15:31:06;7.60;80.60
78297;DHT22;67555;47.660;19.622;2023-12-14T15:33:32;7.50;80.70